createdAt,value
2023-01-01T00:00:53.045Z,12.38
2023-01-01T00:03:22.502Z,12.40
2023-01-01T00:05:51.636Z,12.42
2023-01-01T00:08:21.775Z,12.35
2023-01-01T00:10:50.626Z,12.30
2023-01-01T00:13:19.432Z,12.34
2023-01-01T00:15:47.916Z,12.32
2023-01-01T00:18:16.517Z,12.35
2023-01-01T00:20:44.956Z,12.41
2023-01-01T00:23:13.593Z,12.41
2023-01-01T00:25:44.679Z,12.37
2023-01-01T00:28:13.896Z,12.37
2023-01-01T00:30:43.068Z,12.37
2023-01-01T00:33:11.574Z,12.35
2023-01-01T00:35:40.129Z,12.31
2023-01-01T00:38:08.893Z,12.26
2023-01-01T00:40:38.235Z,12.22
2023-01-01T00:43:08.228Z,12.14
2023-01-01T00:45:36.901Z,12.09
2023-01-01T00:48:05.859Z,12.06
2023-01-01T00:50:34.287Z,12.06
2023-01-01T00:53:03.028Z,12.01
2023-01-01T00:55:31.478Z,12.01
2023-01-01T00:58:00.054Z,12.00
2023-01-01T01:00:30.171Z,11.99
2023-01-01T01:02:58.773Z,11.98
2023-01-01T01:05:27.212Z,11.98
2023-01-01T01:07:56.061Z,12.04
2023-01-01T01:10:26.152Z,12.07
2023-01-01T01:12:54.759Z,12.11
2023-01-01T01:15:23.416Z,12.16
2023-01-01T01:17:53.413Z,12.24
2023-01-01T01:20:22.288Z,12.25
2023-01-01T01:22:51.552Z,12.28
2023-01-01T01:25:20.796Z,12.31
2023-01-01T01:27:49.303Z,12.30
2023-01-01T01:30:18.241Z,12.40
2023-01-01T01:32:46.755Z,12.40
2023-01-01T01:35:17.085Z,12.38
2023-01-01T01:37:45.701Z,12.36
2023-01-01T01:40:17.761Z,12.37
2023-01-01T01:42:52.570Z,12.43
2023-01-01T01:45:21.268Z,12.48
2023-01-01T01:47:53.281Z,12.51
2023-01-01T01:50:25.489Z,12.53
2023-01-01T01:53:05.345Z,12.57
2023-01-01T01:55:37.761Z,12.59
2023-01-01T01:58:09.407Z,12.57
2023-01-01T02:00:38.417Z,12.56
2023-01-01T02:03:10.322Z,12.58
2023-01-01T02:05:41.916Z,12.60
2023-01-01T02:08:14.749Z,12.72
2023-01-01T02:10:44.463Z,12.71
2023-01-01T02:13:13.769Z,12.69
2023-01-01T02:15:52.211Z,12.71
2023-01-01T02:18:26.161Z,12.69
2023-01-01T02:21:01.677Z,12.65
2023-01-01T02:23:57.015Z,12.68
2023-01-01T02:26:50.893Z,12.66
2023-01-01T02:29:35.351Z,12.70
2023-01-01T02:32:08.378Z,12.70
2023-01-01T02:34:41.164Z,12.67
2023-01-01T02:37:13.669Z,12.62
2023-01-01T02:39:47.763Z,12.63
2023-01-01T02:42:18.289Z,12.61
2023-01-01T02:44:52.274Z,12.60
2023-01-01T02:47:22.195Z,12.71
2023-01-01T02:49:57.973Z,12.72
2023-01-01T02:52:51.410Z,12.75
2023-01-01T02:55:30.885Z,12.78
2023-01-01T02:58:26.272Z,12.84
2023-01-01T03:01:06.288Z,12.95
2023-01-01T03:03:43.759Z,13.09
2023-01-01T03:06:27.357Z,13.18
2023-01-01T03:09:12.567Z,13.23
2023-01-01T03:11:49.647Z,13.31
2023-01-01T03:14:26.235Z,13.48
2023-01-01T03:17:01.116Z,13.67
2023-01-01T03:19:33.082Z,13.71
2023-01-01T03:22:06.259Z,13.81
2023-01-01T03:24:39.644Z,13.85
2023-01-01T03:27:12.445Z,13.94
2023-01-01T03:29:43.408Z,14.05
2023-01-01T03:32:20.012Z,14.18
2023-01-01T03:34:54.195Z,14.32
2023-01-01T03:37:28.658Z,14.39
2023-01-01T03:40:00.821Z,14.39
2023-01-01T03:42:36.300Z,14.38
2023-01-01T03:45:08.054Z,14.40
2023-01-01T03:47:38.766Z,14.41
2023-01-01T03:50:08.478Z,14.38
2023-01-01T03:52:46.016Z,14.31
2023-01-01T03:55:19.404Z,14.19
2023-01-01T03:57:58.704Z,14.14
2023-01-01T04:00:31.767Z,14.12
2023-01-01T04:03:06.524Z,14.08
2023-01-01T04:05:40.732Z,13.96
2023-01-01T04:08:11.390Z,13.94
2023-01-01T04:10:44.729Z,13.95
2023-01-01T04:13:14.476Z,13.91
2023-01-01T04:15:43.600Z,13.88
2023-01-01T04:18:13.958Z,13.86
2023-01-01T04:20:42.877Z,13.85
2023-01-01T04:23:12.276Z,13.88
2023-01-01T04:25:42.786Z,13.92
2023-01-01T04:28:30.690Z,13.92
2023-01-01T04:31:13.525Z,13.93
2023-01-01T04:33:44.076Z,13.93
2023-01-01T04:36:13.091Z,13.93
2023-01-01T04:38:42.198Z,13.92
2023-01-01T04:41:11.895Z,13.88
2023-01-01T04:43:40.971Z,13.81
2023-01-01T04:46:10.982Z,13.83
2023-01-01T04:48:40.875Z,13.88
2023-01-01T04:51:15.152Z,13.99
2023-01-01T04:53:44.185Z,13.98
2023-01-01T04:56:16.216Z,13.89
2023-01-01T04:58:46.383Z,13.88
2023-01-01T05:01:21.477Z,13.84
2023-01-01T05:03:51.194Z,13.86
2023-01-01T05:06:22.565Z,13.85
2023-01-01T05:08:52.616Z,13.82
2023-01-01T05:11:22.964Z,13.75
2023-01-01T05:13:56.583Z,13.71
2023-01-01T05:16:28.332Z,13.70
2023-01-01T05:18:59.149Z,13.70
2023-01-01T05:21:33.484Z,13.68
2023-01-01T05:24:04.964Z,13.74
2023-01-01T05:26:36.220Z,13.73
2023-01-01T05:29:11.942Z,13.78
2023-01-01T05:31:45.621Z,13.77
2023-01-01T05:34:15.184Z,13.72
2023-01-01T05:36:46.341Z,13.70
2023-01-01T05:39:15.318Z,13.67
2023-01-01T05:41:44.692Z,13.67
2023-01-01T05:44:15.078Z,13.67
2023-01-01T05:46:45.629Z,13.67
2023-01-01T05:49:14.952Z,13.65
2023-01-01T05:51:46.006Z,13.65
2023-01-01T05:56:43.393Z,13.68
2023-01-01T05:59:12.884Z,13.68
2023-01-01T06:01:45.914Z,13.76
2023-01-01T06:04:16.055Z,13.83
2023-01-01T06:06:46.601Z,13.87
2023-01-01T06:09:15.780Z,13.98
2023-01-01T06:11:44.836Z,13.99
2023-01-01T06:14:14.049Z,14.01
2023-01-01T06:16:44.313Z,14.02
2023-01-01T06:19:16.266Z,14.09
2023-01-01T06:21:46.762Z,14.08
2023-01-01T06:24:15.974Z,14.11
2023-01-01T06:26:45.028Z,14.13
2023-01-01T06:29:13.716Z,14.15
2023-01-01T06:31:42.380Z,14.14
2023-01-01T06:34:10.921Z,14.07
2023-01-01T06:36:39.748Z,14.04
2023-01-01T06:39:09.998Z,13.97
2023-01-01T06:41:39.417Z,13.99
2023-01-01T06:44:08.280Z,14.06
2023-01-01T06:46:37.935Z,14.07
2023-01-01T06:49:08.421Z,14.06
2023-01-01T06:51:39.720Z,14.10
2023-01-01T06:54:10.973Z,14.08
2023-01-01T06:56:40.509Z,14.07
2023-01-01T06:59:09.089Z,14.04
2023-01-01T07:01:43.894Z,14.00
2023-01-01T07:04:14.657Z,13.96
2023-01-01T07:06:43.895Z,13.97
2023-01-01T07:09:14.384Z,13.98
2023-01-01T07:11:43.981Z,13.89
2023-01-01T07:14:12.602Z,13.87
2023-01-01T07:16:41.270Z,13.80
2023-01-01T07:19:09.873Z,13.73
2023-01-01T07:21:43.670Z,13.72
2023-01-01T07:24:15.554Z,13.70
2023-01-01T07:26:44.503Z,13.69
2023-01-01T07:29:13.571Z,13.66
2023-01-01T07:31:43.905Z,13.64
2023-01-01T07:34:15.394Z,13.57
2023-01-01T07:36:44.708Z,13.59
2023-01-01T07:39:14.675Z,13.54
2023-01-01T07:41:43.540Z,13.52
2023-01-01T07:44:14.794Z,13.42
2023-01-01T07:46:43.448Z,13.39
2023-01-01T07:49:12.256Z,13.34
2023-01-01T07:51:40.683Z,13.38
2023-01-01T07:54:09.308Z,13.41
2023-01-01T07:56:39.387Z,13.48
2023-01-01T07:59:08.015Z,13.54
2023-01-01T08:01:37.934Z,13.64
2023-01-01T08:04:07.315Z,13.74
2023-01-01T08:06:36.117Z,13.88
2023-01-01T08:09:04.948Z,13.93
2023-01-01T08:11:33.463Z,14.06
2023-01-01T08:14:04.428Z,14.14
2023-01-01T08:16:32.974Z,14.14
2023-01-01T08:19:01.547Z,14.13
2023-01-01T08:21:30.233Z,14.11
2023-01-01T08:23:58.902Z,14.10
2023-01-01T08:26:32.736Z,14.11
2023-01-01T08:29:05.867Z,14.13
2023-01-01T08:31:34.738Z,14.18
2023-01-01T08:34:03.445Z,14.20
2023-01-01T08:36:32.270Z,14.21
2023-01-01T08:39:01.224Z,14.24
2023-01-01T08:41:29.709Z,14.26
2023-01-01T08:43:58.371Z,14.29
2023-01-01T08:46:28.452Z,14.36
2023-01-01T08:48:57.255Z,14.43
2023-01-01T08:51:25.842Z,14.41
2023-01-01T08:53:54.457Z,14.47
2023-01-01T08:56:22.857Z,14.51
2023-01-01T08:58:51.689Z,14.55
2023-01-01T09:01:23.369Z,14.57
2023-01-01T09:03:53.609Z,14.54
2023-01-01T09:06:22.572Z,14.57
2023-01-01T09:08:51.549Z,14.60
2023-01-01T09:11:25.052Z,14.64
2023-01-01T09:13:54.484Z,14.79
2023-01-01T09:16:23.653Z,14.88
2023-01-01T09:18:53.685Z,14.93
2023-01-01T09:21:22.676Z,14.96
2023-01-01T09:23:51.270Z,14.99
2023-01-01T09:26:19.768Z,15.11
2023-01-01T09:28:48.439Z,15.19
2023-01-01T09:31:17.118Z,15.28
2023-01-01T09:33:45.809Z,15.39
2023-01-01T09:36:17.722Z,15.48
2023-01-01T09:38:49.901Z,15.59
2023-01-01T09:41:33.598Z,15.69
2023-01-01T09:44:11.093Z,15.74
2023-01-01T09:46:40.038Z,15.81
2023-01-01T09:49:16.614Z,15.86
2023-01-01T09:51:58.169Z,15.90
2023-01-01T09:54:30.943Z,16.00
2023-01-01T09:57:01.926Z,16.05
2023-01-01T09:59:31.546Z,16.07
2023-01-01T10:02:09.841Z,16.12
2023-01-01T10:04:49.870Z,16.19
2023-01-01T10:07:28.255Z,16.25
2023-01-01T10:10:03.194Z,16.35
2023-01-01T10:12:43.549Z,16.43
2023-01-01T10:15:18.047Z,16.46
2023-01-01T10:17:49.749Z,16.43
2023-01-01T10:20:23.549Z,16.49
2023-01-01T10:22:58.186Z,16.53
2023-01-01T10:25:28.821Z,16.62
2023-01-01T10:28:01.684Z,16.71
2023-01-01T10:30:32.096Z,16.82
2023-01-01T10:33:01.283Z,16.93
2023-01-01T10:35:36.279Z,16.98
2023-01-01T10:38:07.271Z,17.00
2023-01-01T10:40:36.280Z,17.03
2023-01-01T10:43:05.333Z,17.06
2023-01-01T10:45:36.778Z,17.06
2023-01-01T10:48:18.427Z,17.02
2023-01-01T10:50:50.962Z,17.04
2023-01-01T10:53:30.465Z,16.99
2023-01-01T10:56:11.645Z,16.91
2023-01-01T10:58:43.928Z,16.87
2023-01-01T11:01:14.747Z,16.77
2023-01-01T11:03:56.504Z,16.67
2023-01-01T11:06:28.114Z,16.63
2023-01-01T11:09:00.110Z,16.63
2023-01-01T11:11:31.250Z,16.57
2023-01-01T11:14:04.705Z,16.57
2023-01-01T11:16:34.228Z,16.56
2023-01-01T11:19:06.960Z,16.56
2023-01-01T11:21:36.957Z,16.57
2023-01-01T11:24:19.761Z,16.59
2023-01-01T11:26:54.204Z,16.54
2023-01-01T11:29:30.304Z,16.59
2023-01-01T11:32:01.712Z,16.59
2023-01-01T11:34:33.869Z,16.55
2023-01-01T11:37:21.246Z,16.54
2023-01-01T11:39:54.526Z,16.56
2023-01-01T11:42:25.741Z,16.57
2023-01-01T11:44:57.205Z,16.67
2023-01-01T11:47:30.521Z,16.77
2023-01-01T11:50:19.782Z,17.11
2023-01-01T11:52:50.558Z,17.15
2023-01-01T11:55:28.463Z,17.05
2023-01-01T11:58:06.270Z,16.94
2023-01-01T12:00:38.005Z,16.90
2023-01-01T12:03:16.692Z,16.82
2023-01-01T12:05:50.557Z,16.78
2023-01-01T12:08:28.831Z,16.78
2023-01-01T12:11:06.220Z,16.78
2023-01-01T12:13:45.295Z,16.80
2023-01-01T12:16:18.193Z,16.87
2023-01-01T12:18:49.694Z,16.92
2023-01-01T12:21:25.065Z,16.95
2023-01-01T12:23:53.803Z,16.96
2023-01-01T12:26:27.130Z,16.95
2023-01-01T12:29:24.615Z,16.92
2023-01-01T12:32:03.837Z,16.92
2023-01-01T12:34:37.508Z,16.90
2023-01-01T12:37:14.792Z,16.91
2023-01-01T12:40:24.548Z,16.85
2023-01-01T12:43:03.254Z,16.78
2023-01-01T12:45:49.387Z,16.83
2023-01-01T12:48:49.108Z,16.90
2023-01-01T12:51:33.520Z,16.97
2023-01-01T12:54:33.364Z,17.03
2023-01-01T12:57:11.148Z,17.06
2023-01-01T12:59:46.141Z,17.00
2023-01-01T13:02:20.639Z,16.97
2023-01-01T13:04:56.533Z,16.92
2023-01-01T13:07:31.353Z,16.91
2023-01-01T13:10:04.792Z,16.88
2023-01-01T13:12:34.219Z,16.94
2023-01-01T13:15:51.784Z,16.98
2023-01-01T13:18:27.759Z,16.95
2023-01-01T13:21:05.751Z,16.88
2023-01-01T13:23:52.055Z,16.83
2023-01-01T13:26:43.061Z,16.73
2023-01-01T13:29:46.027Z,16.64
2023-01-01T13:32:56.769Z,16.59
2023-01-01T13:35:32.737Z,16.56
2023-01-01T13:38:01.873Z,16.55
2023-01-01T13:40:54.307Z,16.46
2023-01-01T13:43:31.131Z,16.41
2023-01-01T13:46:13.455Z,16.36
2023-01-01T13:49:17.928Z,16.30
2023-01-01T13:52:15.899Z,16.18
2023-01-01T13:55:12.529Z,16.08
2023-01-01T13:58:09.192Z,16.06
2023-01-01T14:00:50.037Z,16.01
2023-01-01T14:03:20.416Z,15.91
2023-01-01T14:05:57.087Z,15.75
2023-01-01T14:08:31.120Z,15.59
2023-01-01T14:11:02.190Z,15.41
2023-01-01T14:13:32.616Z,15.25
2023-01-01T14:16:04.569Z,15.07
2023-01-01T14:18:35.242Z,14.88
2023-01-01T14:21:11.245Z,14.74
2023-01-01T14:23:42.303Z,14.59
2023-01-01T14:26:15.246Z,14.46
2023-01-01T14:28:44.706Z,14.34
2023-01-01T14:31:17.538Z,14.19
2023-01-01T14:33:46.850Z,14.11
2023-01-01T14:36:25.039Z,14.03
2023-01-01T14:38:55.829Z,13.89
2023-01-01T14:41:29.362Z,13.77
2023-01-01T14:43:59.864Z,13.76
2023-01-01T14:46:28.951Z,13.85
2023-01-01T14:48:59.679Z,13.95
2023-01-01T14:51:32.303Z,14.02
2023-01-01T14:54:03.840Z,14.02
2023-01-01T14:56:38.816Z,14.00
2023-01-01T14:59:13.221Z,13.98
2023-01-01T15:01:42.900Z,13.96
2023-01-01T15:04:20.419Z,13.88
2023-01-01T15:06:56.098Z,13.82
2023-01-01T15:09:25.350Z,13.79
2023-01-01T15:11:54.895Z,13.74
2023-01-01T15:14:35.078Z,13.69
2023-01-01T15:17:06.188Z,13.67
2023-01-01T15:19:36.792Z,13.59
2023-01-01T15:22:12.081Z,13.52
2023-01-01T15:24:42.986Z,13.48
2023-01-01T15:27:23.665Z,13.44
2023-01-01T15:29:52.577Z,13.38
2023-01-01T15:32:26.581Z,13.33
2023-01-01T15:34:56.844Z,13.27
2023-01-01T15:37:34.427Z,13.17
2023-01-01T15:40:25.279Z,13.11
2023-01-01T15:43:14.824Z,13.07
2023-01-01T15:45:52.267Z,12.99
2023-01-01T15:48:25.196Z,12.93
2023-01-01T15:51:02.867Z,12.96
2023-01-01T15:53:54.516Z,12.94
2023-01-01T15:56:26.601Z,12.87
2023-01-01T15:59:05.038Z,12.81
2023-01-01T16:01:38.542Z,12.71
2023-01-01T16:04:11.142Z,12.57
2023-01-01T16:06:45.330Z,12.47
2023-01-01T16:09:16.122Z,12.40
2023-01-01T16:11:45.582Z,12.33
2023-01-01T16:14:14.110Z,12.30
2023-01-01T16:16:47.855Z,12.34
2023-01-01T16:19:19.286Z,12.34
2023-01-01T16:21:47.953Z,12.27
2023-01-01T16:24:20.120Z,12.31
2023-01-01T16:26:49.354Z,12.28
2023-01-01T16:29:18.407Z,12.31
2023-01-01T16:31:48.687Z,12.31
2023-01-01T16:34:17.382Z,12.37
2023-01-01T16:36:46.530Z,12.47
2023-01-01T16:39:15.272Z,12.49
2023-01-01T16:41:45.840Z,12.50
2023-01-01T16:44:15.286Z,12.51
2023-01-01T16:46:44.868Z,12.49
2023-01-01T16:49:14.039Z,12.45
2023-01-01T16:51:43.986Z,12.43
2023-01-01T16:54:12.963Z,12.39
2023-01-01T16:56:41.584Z,12.34
2023-01-01T16:59:11.449Z,12.28
2023-01-01T17:01:40.072Z,12.21
2023-01-01T17:04:09.042Z,12.13
2023-01-01T17:06:39.646Z,12.10
2023-01-01T17:09:08.708Z,12.06
2023-01-01T17:11:39.583Z,12.03
2023-01-01T17:14:08.723Z,11.98
2023-01-01T17:16:39.859Z,11.97
2023-01-01T17:19:17.411Z,11.93
2023-01-01T17:21:48.393Z,11.97
2023-01-01T17:24:17.874Z,11.97
2023-01-01T17:26:46.488Z,12.01
2023-01-01T17:29:15.177Z,12.01
2023-01-01T17:31:45.284Z,12.04
2023-01-01T17:34:14.687Z,12.01
2023-01-01T17:36:44.321Z,11.97
2023-01-01T17:39:14.037Z,11.90
2023-01-01T17:41:43.388Z,11.84
2023-01-01T17:44:12.523Z,11.79
2023-01-01T17:46:42.704Z,11.73
2023-01-01T17:49:12.943Z,11.65
2023-01-01T17:51:41.814Z,11.57
2023-01-01T17:54:13.928Z,11.49
2023-01-01T17:56:42.499Z,11.42
2023-01-01T17:59:11.460Z,11.33
2023-01-01T18:01:42.387Z,11.28
2023-01-01T18:04:13.440Z,11.25
2023-01-01T18:06:44.245Z,11.21
2023-01-01T18:09:16.460Z,11.22
2023-01-01T18:11:45.387Z,11.19
2023-01-01T18:14:17.305Z,11.14
2023-01-01T18:16:49.656Z,11.15
2023-01-01T18:19:20.009Z,11.19
2023-01-01T18:21:48.772Z,11.17
2023-01-01T18:24:17.697Z,11.18
2023-01-01T18:26:46.240Z,11.18
2023-01-01T18:29:15.447Z,11.10
2023-01-01T18:31:45.742Z,11.05
2023-01-01T18:34:14.485Z,10.97
2023-01-01T18:36:47.116Z,10.90
2023-01-01T18:39:21.973Z,10.84
2023-01-01T18:42:16.864Z,10.71
2023-01-01T18:44:45.560Z,10.66
2023-01-01T18:47:16.630Z,10.59
2023-01-01T18:49:49.532Z,10.49
2023-01-01T18:52:27.358Z,10.42
2023-01-01T18:55:08.204Z,10.35
2023-01-01T18:57:37.495Z,10.24
2023-01-01T19:00:18.610Z,10.20
2023-01-01T19:02:53.365Z,10.13
2023-01-01T19:05:24.877Z,10.04
2023-01-01T19:08:14.301Z,10.02
2023-01-01T19:10:47.761Z,10.01
2023-01-01T19:13:21.875Z,9.98
2023-01-01T19:15:54.339Z,9.85
2023-01-01T19:18:27.502Z,9.79
2023-01-01T19:21:02.557Z,9.77
2023-01-01T19:23:33.108Z,9.77
2023-01-01T19:26:04.701Z,9.80
2023-01-01T19:28:38.821Z,9.76
2023-01-01T19:31:08.454Z,9.75
2023-01-01T19:33:37.412Z,9.71
2023-01-01T19:36:06.427Z,9.63
2023-01-01T19:38:36.572Z,9.49
2023-01-01T19:41:05.045Z,9.31
2023-01-01T19:43:33.610Z,9.23
2023-01-01T19:46:02.372Z,9.15
2023-01-01T19:48:31.012Z,9.10
2023-01-01T19:51:00.135Z,9.11
2023-01-01T19:53:28.832Z,9.06
2023-01-01T19:55:59.028Z,9.02
2023-01-01T19:58:27.778Z,8.99
2023-01-01T20:00:56.526Z,8.97
2023-01-01T20:03:52.896Z,8.92
2023-01-01T20:06:15.441Z,8.86
2023-01-01T20:08:44.182Z,8.85
2023-01-01T20:11:15.444Z,8.85
2023-01-01T20:13:44.277Z,8.83
2023-01-01T20:16:13.369Z,8.77
2023-01-01T20:18:42.066Z,8.69
2023-01-01T20:21:28.369Z,8.65
2023-01-01T20:23:57.250Z,8.61
2023-01-01T20:26:27.539Z,8.61
2023-01-01T20:29:13.554Z,8.62
2023-01-01T20:31:43.052Z,8.73
2023-01-01T20:34:12.062Z,8.83
2023-01-01T20:36:58.116Z,8.95
2023-01-01T20:39:27.457Z,9.03
2023-01-01T20:41:57.466Z,9.09
2023-01-01T20:44:26.245Z,9.03
2023-01-01T20:46:55.246Z,8.89
2023-01-01T20:49:24.190Z,8.75
2023-01-01T20:51:54.400Z,8.70
2023-01-01T20:54:23.878Z,8.65
2023-01-01T20:56:53.231Z,8.59
2023-01-01T20:59:39.186Z,8.53
2023-01-01T21:02:10.051Z,8.42
2023-01-01T21:04:40.154Z,8.38
2023-01-01T21:07:11.215Z,8.40
2023-01-01T21:09:41.646Z,8.45
2023-01-01T21:12:10.787Z,8.47
2023-01-01T21:14:40.947Z,8.45
2023-01-01T21:17:21.496Z,8.48
2023-01-01T21:19:51.184Z,8.51
2023-01-01T21:22:19.652Z,8.52
2023-01-01T21:24:54.115Z,8.54
2023-01-01T21:27:29.464Z,8.53
2023-01-01T21:30:00.334Z,8.48
2023-01-01T21:32:37.574Z,8.45
2023-01-01T21:35:17.347Z,8.44
2023-01-01T21:37:50.181Z,8.41
2023-01-01T21:40:40.597Z,8.42
2023-01-01T21:43:27.998Z,8.44
2023-01-01T21:46:01.421Z,8.45
2023-01-01T21:48:32.307Z,8.46
2023-01-01T21:51:01.888Z,8.47
2023-01-01T21:53:32.402Z,8.46
2023-01-01T21:56:19.736Z,8.46
2023-01-01T21:59:05.502Z,8.43
2023-01-01T22:01:39.995Z,8.41
2023-01-01T22:04:20.223Z,8.41
2023-01-01T22:06:51.552Z,8.39
2023-01-01T22:09:23.466Z,8.37
2023-01-01T22:11:53.367Z,8.35
2023-01-01T22:14:27.459Z,8.37
2023-01-01T22:16:57.534Z,8.40
2023-01-01T22:19:33.185Z,8.40
2023-01-01T22:22:01.832Z,8.41
2023-01-01T22:24:33.645Z,8.43
2023-01-01T22:27:21.981Z,8.42
2023-01-01T22:29:50.785Z,8.38
2023-01-01T22:32:24.727Z,8.34
2023-01-01T22:34:56.525Z,8.30
2023-01-01T22:37:32.696Z,8.28
2023-01-01T22:40:02.492Z,8.23
2023-01-01T22:42:38.172Z,8.21
2023-01-01T22:45:15.003Z,8.20
2023-01-01T22:47:46.000Z,8.17
2023-01-01T22:50:22.868Z,8.18
2023-01-01T22:52:52.281Z,8.16
2023-01-01T22:55:21.199Z,8.18
2023-01-01T22:57:50.267Z,8.19
2023-01-01T23:00:20.610Z,8.20
2023-01-01T23:02:50.629Z,8.17
2023-01-01T23:05:19.528Z,8.15
2023-01-01T23:07:48.332Z,8.15
2023-01-01T23:10:17.317Z,8.12
2023-01-01T23:12:45.988Z,8.11
2023-01-01T23:15:32.373Z,8.10
2023-01-01T23:18:02.673Z,8.10
2023-01-01T23:20:32.608Z,8.10
2023-01-01T23:23:02.304Z,8.11
2023-01-01T23:25:31.100Z,8.12
2023-01-01T23:27:59.929Z,8.16
2023-01-01T23:30:30.366Z,8.16
2023-01-01T23:32:58.780Z,8.16
2023-01-01T23:35:28.937Z,8.12
2023-01-01T23:37:57.950Z,8.07
2023-01-01T23:40:26.666Z,8.05
2023-01-01T23:42:55.651Z,8.05
2023-01-01T23:45:24.475Z,8.05
2023-01-01T23:47:53.951Z,8.08
2023-01-01T23:50:23.301Z,8.06
2023-01-01T23:52:55.579Z,8.10
2023-01-01T23:55:24.359Z,8.10
2023-01-01T23:57:53.375Z,8.09
